KFLG/FLG METAR and TAF weather

Enter ICAO airport designator
Station Type Date Time Source
KFLG METAR 2021/02/27 20:57 UTC NOAA

KFLG 272057Z 29007G18KT 10SM CLR 07/M13 A2985 RMK AO2 SLP090 T00671133 58013


Station Type Date Time Source
KFLG Decoded METAR 2021/02/27 20:57 UTC NOAA

FLAGSTAFF PULLIAM AIRPORT, AZ, United States (KFLG) 35-08N 111-40W 2134M
Feb 27, 2021 - 03:57 PM EST / 2021.02.27 2057 UTC
Wind: from the WNW (290 degrees) at 8 MPH (7 KT) gusting to 21 MPH (18 KT):0
Visibility: 10 mile(s):0
Sky conditions: clear
Temperature: 44.1 F (6.7 C)
Dew Point: 8.1 F (-13.3 C)
Relative Humidity: 22%
Pressure (altimeter): 29.85 in. Hg (1010 hPa)
Pressure tendency: 0.04 inches (1.3 hPa) lower than three hours ago
ob: KFLG 272057Z 29007G18KT 10SM CLR 07/M13 A2985 RMK AO2 SLP090 T00671133 58013
cycle: 21

Station Type Date Time Source
KFLG TAF 2021/02/27 18:22 UTC NOAA

TAF KFLG 271720Z 2718/2818 25012G20KT P6SM SKC
FM280200 27008KT P6SM SKC
FM281000 03012G25KT P6SM SKC
FM281500 04025G32KT P6SM FEW050 SCT250

Example: see airport list